createdAt,value
2022-11-08T00:00:05.671Z,100.00
2022-11-08T00:05:23.269Z,100.00
2022-11-08T00:10:43.538Z,100.00
2022-11-08T00:15:48.422Z,100.00
2022-11-08T00:20:53.345Z,100.00
2022-11-08T00:26:00.970Z,100.00
2022-11-08T00:31:08.911Z,100.00
2022-11-08T00:36:15.795Z,100.00
2022-11-08T00:41:24.671Z,100.00
2022-11-08T00:46:30.268Z,100.00
2022-11-08T00:51:35.101Z,100.00
2022-11-08T00:56:42.732Z,100.00
2022-11-08T01:01:50.513Z,100.00
2022-11-08T01:06:56.699Z,100.00
2022-11-08T01:12:04.311Z,100.00
2022-11-08T01:17:09.702Z,100.00
2022-11-08T01:22:19.176Z,100.00
2022-11-08T01:27:28.064Z,100.00
2022-11-08T01:32:32.908Z,100.00
2022-11-08T01:37:37.770Z,100.00
2022-11-08T01:42:45.261Z,100.00
2022-11-08T01:47:49.986Z,100.00
2022-11-08T01:52:58.140Z,100.00
2022-11-08T01:58:08.245Z,100.00
2022-11-08T02:03:19.196Z,100.00
2022-11-08T02:08:31.219Z,100.00
2022-11-08T02:13:43.035Z,100.00
2022-11-08T02:18:49.428Z,100.00
2022-11-08T02:23:59.156Z,100.00
2022-11-08T02:29:26.988Z,100.00
2022-11-08T02:34:35.321Z,100.00
2022-11-08T02:39:43.180Z,100.00
2022-11-08T02:44:48.622Z,100.00
2022-11-08T02:49:53.677Z,100.00
2022-11-08T02:55:01.186Z,100.00
2022-11-08T03:00:07.432Z,100.00
2022-11-08T03:05:12.366Z,100.00
2022-11-08T03:10:20.497Z,100.00
2022-11-08T03:15:25.513Z,100.00
2022-11-08T03:20:33.134Z,100.00
2022-11-08T03:25:41.027Z,100.00
2022-11-08T03:30:45.774Z,100.00
2022-11-08T03:35:52.512Z,100.00
2022-11-08T03:41:00.633Z,100.00
2022-11-08T03:46:05.711Z,100.00
2022-11-08T03:51:10.690Z,100.00
2022-11-08T03:56:18.212Z,100.00
2022-11-08T04:01:23.009Z,100.00
2022-11-08T04:06:28.162Z,100.00
2022-11-08T04:11:47.940Z,100.00
2022-11-08T04:16:53.856Z,100.00
2022-11-08T04:22:01.840Z,100.00
2022-11-08T04:27:09.435Z,100.00
2022-11-08T04:32:15.168Z,100.00
2022-11-08T04:37:20.025Z,100.00
2022-11-08T04:42:27.437Z,100.00
2022-11-08T04:47:38.798Z,100.00
2022-11-08T04:52:45.947Z,100.00
2022-11-08T04:57:53.932Z,100.00
2022-11-08T05:03:01.418Z,100.00
2022-11-08T05:08:06.607Z,100.00
2022-11-08T05:13:15.650Z,100.00
2022-11-08T05:18:20.904Z,100.00
2022-11-08T05:23:31.155Z,100.00
2022-11-08T05:28:40.622Z,100.00
2022-11-08T05:33:45.775Z,100.00
2022-11-08T05:38:52.047Z,100.00
2022-11-08T05:43:59.936Z,100.00
2022-11-08T05:49:05.986Z,100.00
2022-11-08T05:54:13.126Z,100.00
2022-11-08T05:59:20.816Z,100.00
2022-11-08T06:04:25.541Z,100.00
2022-11-08T06:09:30.282Z,100.00
2022-11-08T06:14:37.975Z,100.00
2022-11-08T06:19:42.991Z,100.00
2022-11-08T06:24:50.009Z,100.00
2022-11-08T06:29:59.500Z,100.00
2022-11-08T06:35:04.918Z,100.00
2022-11-08T06:40:12.133Z,100.00
2022-11-08T06:45:20.372Z,100.00
2022-11-08T06:50:25.544Z,100.00
2022-11-08T06:55:32.933Z,100.00
2022-11-08T07:00:40.397Z,100.00
2022-11-08T07:05:47.305Z,100.00
2022-11-08T07:10:52.049Z,100.00
2022-11-08T07:16:00.997Z,100.00
2022-11-08T07:21:07.980Z,100.00
2022-11-08T07:26:15.395Z,100.00
2022-11-08T07:31:23.958Z,100.00
2022-11-08T07:36:29.105Z,100.00
2022-11-08T07:41:36.275Z,100.00
2022-11-08T07:46:45.850Z,100.00
2022-11-08T07:51:50.873Z,100.00
2022-11-08T07:56:55.911Z,100.00
2022-11-08T08:02:03.399Z,100.00
2022-11-08T08:07:08.871Z,100.00
2022-11-08T08:12:14.084Z,100.00
2022-11-08T08:17:23.899Z,100.00
2022-11-08T08:22:28.671Z,100.00
2022-11-08T08:27:35.300Z,100.00
2022-11-08T08:32:42.898Z,100.00
2022-11-08T08:37:47.690Z,100.00
2022-11-08T08:42:55.136Z,100.00
2022-11-08T08:48:03.248Z,100.00
2022-11-08T08:53:11.389Z,100.00
2022-11-08T08:58:16.586Z,100.00
2022-11-08T09:03:24.992Z,100.00
2022-11-08T09:08:32.757Z,100.00
2022-11-08T09:13:37.956Z,100.00
2022-11-08T09:18:47.523Z,97.58
2022-11-08T09:23:54.518Z,94.72
2022-11-08T09:29:00.054Z,91.79
2022-11-08T09:34:08.718Z,90.11
2022-11-08T09:39:13.510Z,87.30
2022-11-08T09:45:11.342Z,89.97
2022-11-08T09:50:24.306Z,96.80
2022-11-08T09:55:34.850Z,92.13
2022-11-08T10:00:43.298Z,90.65
2022-11-08T10:06:02.564Z,91.45
2022-11-08T10:11:25.022Z,92.57
2022-11-08T10:16:39.434Z,91.26
2022-11-08T10:21:59.063Z,89.75
2022-11-08T10:27:11.377Z,89.69
2022-11-08T10:32:21.724Z,89.31
2022-11-08T10:37:30.731Z,88.82
2022-11-08T10:42:48.916Z,89.11
2022-11-08T10:47:55.012Z,87.82
2022-11-08T10:53:05.702Z,85.26
2022-11-08T10:58:35.656Z,83.15
2022-11-08T11:03:40.858Z,84.44
2022-11-08T11:08:56.994Z,83.85
2022-11-08T11:14:18.293Z,80.09
2022-11-08T11:19:29.117Z,75.27
2022-11-08T11:24:38.388Z,74.33
2022-11-08T11:29:43.369Z,78.57
2022-11-08T11:34:55.666Z,77.00
2022-11-08T11:40:17.230Z,73.70
2022-11-08T11:45:27.018Z,72.45
2022-11-08T11:50:36.192Z,73.66
2022-11-08T11:56:01.665Z,71.45
2022-11-08T12:01:29.114Z,70.98
2022-11-08T12:06:45.769Z,74.10
2022-11-08T12:12:16.213Z,71.82
2022-11-08T12:18:12.021Z,71.05
2022-11-08T12:23:45.277Z,73.38
2022-11-08T12:29:11.629Z,71.18
2022-11-08T12:34:30.029Z,72.25
2022-11-08T12:39:45.832Z,70.10
2022-11-08T12:45:17.968Z,70.14
2022-11-08T12:50:30.723Z,69.39
2022-11-08T12:55:39.277Z,71.27
2022-11-08T13:00:52.478Z,75.76
2022-11-08T13:06:05.961Z,75.43
2022-11-08T13:11:18.743Z,73.94
2022-11-08T13:16:31.624Z,74.48
2022-11-08T13:21:47.364Z,76.24
2022-11-08T13:26:59.221Z,78.69
2022-11-08T13:32:12.335Z,79.57
2022-11-08T13:37:35.526Z,79.21
2022-11-08T13:42:57.974Z,81.98
2022-11-08T13:48:29.142Z,81.42
2022-11-08T13:53:58.570Z,83.40
2022-11-08T13:59:06.395Z,84.52
2022-11-08T14:04:30.493Z,85.40
2022-11-08T14:09:48.104Z,84.69
2022-11-08T14:14:59.759Z,88.29
2022-11-08T14:20:35.959Z,89.60
2022-11-08T14:25:42.517Z,90.59
2022-11-08T14:30:52.512Z,91.37
2022-11-08T14:36:03.999Z,89.55
2022-11-08T14:41:10.643Z,92.78
2022-11-08T14:46:17.891Z,92.96
2022-11-08T14:51:26.685Z,93.53
2022-11-08T14:56:39.755Z,94.70
2022-11-08T15:01:48.631Z,95.12
2022-11-08T15:06:59.117Z,95.72
2022-11-08T15:12:07.820Z,96.12
2022-11-08T15:17:34.205Z,96.96
2022-11-08T15:22:44.149Z,97.02
2022-11-08T15:27:50.796Z,98.43
2022-11-08T15:32:56.421Z,99.24
2022-11-08T15:38:42.262Z,100.00
2022-11-08T15:43:47.055Z,100.00
2022-11-08T15:48:58.976Z,100.00
2022-11-08T15:54:07.192Z,100.00
2022-11-08T15:59:22.124Z,100.00
2022-11-08T16:04:29.696Z,100.00
2022-11-08T16:09:37.846Z,100.00
2022-11-08T16:14:44.243Z,100.00
2022-11-08T16:19:54.050Z,100.00
2022-11-08T16:25:02.680Z,100.00
2022-11-08T16:30:15.553Z,100.00
2022-11-08T16:35:20.888Z,100.00
2022-11-08T16:40:28.730Z,100.00
2022-11-08T16:46:03.785Z,100.00
2022-11-08T16:51:03.490Z,100.00
2022-11-08T16:56:13.632Z,100.00
2022-11-08T17:01:23.468Z,100.00
2022-11-08T17:06:30.020Z,100.00
2022-11-08T17:11:38.782Z,100.00
2022-11-08T17:16:45.053Z,100.00
2022-11-08T17:21:54.499Z,100.00
2022-11-08T17:27:04.764Z,100.00
2022-11-08T17:32:09.809Z,100.00
2022-11-08T17:37:16.846Z,100.00
2022-11-08T17:42:28.018Z,100.00
2022-11-08T17:47:32.964Z,100.00
2022-11-08T17:52:37.743Z,100.00
2022-11-08T17:57:47.174Z,100.00
2022-11-08T18:02:53.041Z,100.00
2022-11-08T18:08:02.350Z,100.00
2022-11-08T18:13:11.230Z,100.00
2022-11-08T18:18:19.149Z,100.00
2022-11-08T18:23:24.303Z,100.00
2022-11-08T18:28:33.658Z,100.00
2022-11-08T18:33:40.767Z,100.00
2022-11-08T18:38:46.676Z,100.00
2022-11-08T18:43:55.006Z,100.00
2022-11-08T18:48:59.925Z,100.00
2022-11-08T18:54:05.029Z,100.00
2022-11-08T18:59:12.761Z,100.00
2022-11-08T19:04:18.196Z,100.00
2022-11-08T19:09:23.404Z,100.00
2022-11-08T19:14:31.145Z,100.00
2022-11-08T19:19:37.270Z,100.00
2022-11-08T19:24:42.324Z,100.00
2022-11-08T19:29:50.462Z,100.00
2022-11-08T19:34:55.964Z,100.00
2022-11-08T19:40:01.605Z,100.00
2022-11-08T19:45:11.059Z,100.00
2022-11-08T19:50:16.428Z,100.00
2022-11-08T19:55:21.725Z,100.00
2022-11-08T20:00:29.946Z,100.00
2022-11-08T20:05:35.004Z,100.00
2022-11-08T20:10:40.129Z,100.00
2022-11-08T20:16:17.557Z,100.00
2022-11-08T20:21:26.059Z,100.00
2022-11-08T20:26:32.416Z,100.00
2022-11-08T20:31:42.758Z,100.00
2022-11-08T20:36:49.350Z,100.00
2022-11-08T20:41:56.859Z,100.00
2022-11-08T20:47:06.975Z,100.00
2022-11-08T20:52:11.899Z,100.00
2022-11-08T20:57:16.901Z,100.00
2022-11-08T21:02:24.338Z,100.00
2022-11-08T21:12:54.576Z,100.00
2022-11-08T21:18:02.142Z,100.00
2022-11-08T21:23:08.643Z,100.00
2022-11-08T21:28:15.341Z,100.00
2022-11-08T21:33:23.385Z,100.00
2022-11-08T21:38:28.708Z,100.00
2022-11-08T21:43:36.678Z,100.00
2022-11-08T21:48:44.224Z,100.00
2022-11-08T21:53:54.458Z,100.00
2022-11-08T21:59:04.773Z,100.00
2022-11-08T22:04:12.478Z,100.00
2022-11-08T22:09:17.345Z,100.00
2022-11-08T22:14:22.165Z,100.00
2022-11-08T22:19:29.769Z,100.00
2022-11-08T22:24:35.106Z,100.00
2022-11-08T22:29:39.961Z,100.00
2022-11-08T22:34:47.591Z,100.00
2022-11-08T22:39:52.397Z,100.00
2022-11-08T22:44:59.991Z,100.00
2022-11-08T22:50:08.361Z,100.00
2022-11-08T22:55:13.494Z,100.00
2022-11-08T23:00:18.913Z,100.00
2022-11-08T23:05:26.691Z,100.00
2022-11-08T23:10:31.823Z,100.00
2022-11-08T23:15:50.385Z,100.00
2022-11-08T23:21:23.544Z,100.00
2022-11-08T23:26:41.172Z,100.00
2022-11-08T23:31:45.953Z,100.00
2022-11-08T23:36:53.565Z,100.00
2022-11-08T23:42:10.744Z,100.00
2022-11-08T23:47:15.650Z,100.00
2022-11-08T23:52:34.503Z,100.00
2022-11-08T23:57:39.572Z,100.00
